Time;durP1;ratioP1;P1;durP2;ratioP2;P2;SDS_P1;SDS_P2;PMS_P1;PMS_P2;Temp;Humidity;BMP_temperature;BMP_pressure;BME280_temperature;BME280_humidity;BME280_pressure;Samples;Min_cycle;Max_cycle;Signal;HPM_P1;HPM_P2
2022/01/13 00:00:15;;;;;;;97.53;34.33;;;6.20;99.90;;;;;;5052982;28;20036;-73
2022/01/13 00:02:41;;;;;;;129.82;36.13;;;6.20;99.90;;;;;;5052643;28;20025;-73
2022/01/13 00:05:07;;;;;;;103.13;35.88;;;6.10;99.90;;;;;;5052324;28;20033;-73
2022/01/13 00:07:34;;;;;;;109.40;37.17;;;6.10;99.90;;;;;;5052052;28;20402;-73
2022/01/13 00:09:59;;;;;;;98.78;35.72;;;6.10;99.90;;;;;;5052664;28;20319;-73
2022/01/13 00:12:30;;;;;;;107.95;36.15;;;6.20;99.90;;;;;;5052612;28;20039;-73
2022/01/13 00:17:58;;;;;;;111.50;35.47;;;6.10;99.90;;;;;;5052149;28;20032;-72
2022/01/13 00:25:35;;;;;;;116.00;34.67;;;6.10;99.90;;;;;;5052066;28;20094;-74
2022/01/13 00:28:06;;;;;;;125.22;36.75;;;6.10;99.90;;;;;;5052368;28;20024;-74
2022/01/13 00:30:32;;;;;;;118.43;36.05;;;6.10;99.90;;;;;;5052122;28;20024;-72
2022/01/13 00:32:57;;;;;;;102.47;35.83;;;6.10;99.90;;;;;;5052129;28;20021;-72
2022/01/13 00:35:23;;;;;;;109.53;35.05;;;6.20;99.90;;;;;;5053630;28;20029;-73
2022/01/13 00:37:49;;;;;;;113.82;35.70;;;6.10;99.90;;;;;;5052674;28;20025;-73
2022/01/13 00:40:15;;;;;;;123.05;36.03;;;6.10;99.90;;;;;;5052563;28;20096;-73
2022/01/13 00:42:41;;;;;;;114.40;35.00;;;6.20;99.90;;;;;;5052285;28;20521;-72
2022/01/13 00:45:09;;;;;;;114.10;35.42;;;6.20;99.90;;;;;;5052056;28;20029;-73
2022/01/13 00:47:36;;;;;;;112.32;35.50;;;6.20;99.90;;;;;;5052042;28;20382;-72
2022/01/13 00:50:03;;;;;;;114.22;35.88;;;6.20;99.90;;;;;;5052219;28;20028;-73
2022/01/13 00:52:29;;;;;;;127.93;37.55;;;6.20;99.90;;;;;;5052266;28;20037;-73
2022/01/13 00:54:56;;;;;;;122.90;37.47;;;6.20;99.90;;;;;;5050859;28;20517;-73
2022/01/13 00:57:22;;;;;;;129.38;37.72;;;6.30;99.90;;;;;;5051923;28;20027;-73
2022/01/13 00:59:47;;;;;;;121.25;37.53;;;6.30;99.90;;;;;;5052086;28;20385;-73
2022/01/13 01:02:13;;;;;;;118.45;37.47;;;6.30;99.90;;;;;;5052385;28;20082;-73
2022/01/13 01:04:38;;;;;;;123.55;38.63;;;6.30;99.90;;;;;;5051576;28;20020;-73
2022/01/13 01:07:04;;;;;;;126.70;38.55;;;6.30;99.90;;;;;;5052730;28;20025;-72
2022/01/13 01:09:39;;;;;;;134.90;37.75;;;6.30;99.90;;;;;;5052310;28;20448;-73
2022/01/13 01:12:09;;;;;;;118.20;38.25;;;6.40;99.90;;;;;;5052103;28;20032;-73
2022/01/13 01:14:39;;;;;;;137.70;38.10;;;6.30;99.90;;;;;;5052487;28;20021;-72
2022/01/13 01:17:05;;;;;;;118.63;38.85;;;6.40;99.90;;;;;;5055661;28;20040;-71
2022/01/13 01:19:30;;;;;;;121.97;38.47;;;6.40;99.90;;;;;;5058840;28;20028;-72
2022/01/13 01:22:39;;;;;;;121.07;36.15;;;6.40;99.90;;;;;;5051418;28;20016;-73
2022/01/13 01:27:37;;;;;;;122.50;37.97;;;6.40;99.90;;;;;;5051022;28;20032;-74
2022/01/13 01:30:16;;;;;;;115.90;36.95;;;6.50;99.90;;;;;;5051188;28;20025;-74
2022/01/13 01:32:43;;;;;;;127.93;38.97;;;6.50;99.90;;;;;;5051244;28;20547;-73
2022/01/13 01:35:14;;;;;;;142.73;37.95;;;6.40;99.90;;;;;;5051080;28;20021;-73
2022/01/13 01:37:41;;;;;;;126.80;37.85;;;6.50;99.90;;;;;;5052892;28;20017;-73
2022/01/13 01:40:09;;;;;;;124.05;39.65;;;6.50;99.90;;;;;;5051808;28;20021;-73
2022/01/13 01:42:34;;;;;;;141.30;39.00;;;6.50;99.90;;;;;;5050940;28;20486;-73
2022/01/13 01:45:01;;;;;;;124.18;37.95;;;6.40;99.90;;;;;;5050990;28;20064;-73
2022/01/13 01:47:29;;;;;;;134.52;40.17;;;6.50;99.90;;;;;;5050458;28;20410;-73
2022/01/13 01:49:58;;;;;;;126.50;37.95;;;6.50;99.90;;;;;;5049998;28;20036;-73
2022/01/13 01:52:26;;;;;;;125.10;38.63;;;6.50;99.90;;;;;;5050990;28;20025;-72
2022/01/13 01:54:52;;;;;;;132.40;37.58;;;6.50;99.90;;;;;;5050861;28;20032;-73
2022/01/13 01:57:19;;;;;;;122.82;36.78;;;6.60;99.90;;;;;;5053079;28;20049;-73
2022/01/13 01:59:45;;;;;;;135.55;38.88;;;6.60;99.90;;;;;;5054770;28;20028;-73
2022/01/13 02:02:12;;;;;;;125.57;39.88;;;6.60;99.90;;;;;;5054983;28;20018;-73
2022/01/13 02:04:38;;;;;;;116.22;35.35;;;6.50;99.90;;;;;;5054878;28;20044;-72
2022/01/13 02:07:07;;;;;;;122.72;37.22;;;6.50;99.90;;;;;;5054477;28;20482;-72
2022/01/13 02:09:37;;;;;;;116.38;36.97;;;6.50;99.90;;;;;;5054949;28;20363;-72
2022/01/13 02:12:08;;;;;;;112.28;36.13;;;6.50;99.90;;;;;;5054952;28;20474;-72
2022/01/13 02:14:37;;;;;;;129.23;36.03;;;6.60;99.90;;;;;;5054565;28;20503;-72
2022/01/13 02:17:10;;;;;;;113.60;35.28;;;6.60;99.90;;;;;;5054409;28;20488;-73
2022/01/13 02:19:42;;;;;;;120.90;37.20;;;6.60;99.90;;;;;;5054493;28;20035;-73
2022/01/13 02:22:08;;;;;;;107.35;35.80;;;6.60;99.90;;;;;;5054627;28;20113;-73
2022/01/13 02:24:34;;;;;;;115.50;36.72;;;6.50;99.90;;;;;;5054556;28;20044;-72
2022/01/13 02:27:01;;;;;;;109.25;35.10;;;6.60;99.90;;;;;;5054140;28;20028;-73
2022/01/13 02:29:26;;;;;;;120.20;37.20;;;6.60;99.90;;;;;;5054545;28;20021;-72
2022/01/13 02:31:52;;;;;;;110.65;35.47;;;6.60;99.90;;;;;;5054683;28;20033;-72
2022/01/13 02:34:18;;;;;;;126.13;38.55;;;6.60;99.90;;;;;;5054250;28;20035;-71
2022/01/13 02:36:46;;;;;;;112.85;35.65;;;6.60;99.90;;;;;;5054024;28;20108;-72
2022/01/13 02:39:12;;;;;;;131.57;37.00;;;6.60;99.90;;;;;;5055484;28;20096;-73
2022/01/13 02:41:37;;;;;;;116.00;35.33;;;6.60;99.90;;;;;;5055767;28;20056;-75
2022/01/13 02:44:11;;;;;;;118.70;35.60;;;6.60;99.90;;;;;;5063725;28;20485;-74
2022/01/13 02:49:11;;;;;;;116.55;34.58;;;6.60;99.90;;;;;;5055403;28;20025;-75
2022/01/13 02:51:39;;;;;;;87.07;27.25;;;6.60;99.90;;;;;;5054932;28;20070;-73
2022/01/13 02:54:05;;;;;;;113.13;34.33;;;6.50;99.90;;;;;;5054734;28;20037;-75
2022/01/13 02:56:31;;;;;;;112.88;36.20;;;6.60;99.90;;;;;;5054297;28;20032;-76
2022/01/13 02:58:57;;;;;;;109.65;35.15;;;6.60;99.90;;;;;;5070600;28;20027;-74
2022/01/13 03:01:24;;;;;;;116.85;35.65;;;6.60;99.90;;;;;;5055584;28;20445;-74
2022/01/13 03:03:50;;;;;;;117.90;36.35;;;6.60;99.90;;;;;;5063100;28;20032;-75
2022/01/13 03:06:21;;;;;;;119.25;34.90;;;6.60;99.90;;;;;;5054595;28;20099;-75
2022/01/13 03:08:49;;;;;;;117.15;34.95;;;6.70;99.90;;;;;;5054853;28;20048;-75
2022/01/13 03:11:16;;;;;;;111.80;34.50;;;6.70;99.90;;;;;;5070421;28;20025;-74
2022/01/13 03:13:41;;;;;;;116.32;35.72;;;6.60;99.90;;;;;;5054241;28;20028;-74
2022/01/13 03:16:13;;;;;;;117.38;34.85;;;6.70;99.90;;;;;;5054510;28;20100;-75
2022/01/13 03:18:39;;;;;;;120.47;36.17;;;6.70;99.90;;;;;;5057761;28;20435;-73
2022/01/13 03:21:06;;;;;;;113.47;35.65;;;6.70;99.90;;;;;;5072740;28;20021;-72
2022/01/13 03:23:33;;;;;;;103.20;37.42;;;6.70;99.90;;;;;;5061965;28;20390;-74
2022/01/13 03:25:59;;;;;;;106.47;35.75;;;6.70;99.90;;;;;;5057033;28;20032;-75
2022/01/13 03:28:38;;;;;;;118.00;35.47;;;6.70;99.90;;;;;;5054115;28;20017;-75
2022/01/13 03:31:04;;;;;;;120.68;35.10;;;6.70;99.90;;;;;;5054298;28;20375;-75
2022/01/13 03:33:30;;;;;;;118.72;36.47;;;6.70;99.90;;;;;;5054613;28;20061;-75
2022/01/13 03:35:57;;;;;;;111.32;36.13;;;6.70;99.90;;;;;;5053429;28;20091;-75
2022/01/13 03:38:22;;;;;;;109.00;33.20;;;6.80;99.90;;;;;;5054074;28;20498;-75
2022/01/13 03:40:48;;;;;;;112.20;36.60;;;6.80;99.90;;;;;;5054075;28;20102;-76
2022/01/13 03:43:16;;;;;;;107.32;34.13;;;6.70;99.90;;;;;;5054249;28;20033;-75
2022/01/13 03:45:42;;;;;;;111.18;36.97;;;6.80;99.90;;;;;;5053783;28;20029;-75
2022/01/13 03:48:10;;;;;;;118.03;37.63;;;6.70;99.90;;;;;;5053789;28;20458;-76
2022/01/13 03:50:36;;;;;;;121.78;37.10;;;6.70;99.90;;;;;;5053973;28;20551;-74
2022/01/13 03:53:02;;;;;;;130.05;36.30;;;6.70;99.90;;;;;;5053733;28;20029;-75
2022/01/13 03:55:39;;;;;;;123.13;36.38;;;6.70;99.90;;;;;;5053381;28;20032;-73
2022/01/13 03:58:42;;;;;;;122.97;36.63;;;6.70;99.90;;;;;;5053711;28;20099;-74
2022/01/13 04:01:23;;;;;;;109.07;35.53;;;6.80;99.90;;;;;;5053762;28;20485;-74
2022/01/13 04:03:48;;;;;;;121.63;36.78;;;6.70;99.90;;;;;;5053677;28;20025;-75
2022/01/13 04:06:14;;;;;;;115.93;37.33;;;6.80;99.90;;;;;;5053392;28;20036;-75
2022/01/13 04:08:40;;;;;;;119.55;35.08;;;6.70;99.90;;;;;;5053655;28;20056;-76
2022/01/13 04:11:06;;;;;;;109.53;34.63;;;6.80;99.90;;;;;;5053465;28;20532;-75
2022/01/13 04:13:46;;;;;;;103.55;33.60;;;6.80;99.90;;;;;;5053994;28;20020;-75
2022/01/13 04:16:14;;;;;;;113.78;35.80;;;6.80;99.90;;;;;;5052766;28;20044;-75
2022/01/13 04:18:40;;;;;;;122.18;36.00;;;6.80;99.90;;;;;;5052849;28;20021;-76
2022/01/13 04:21:05;;;;;;;108.20;34.20;;;6.80;99.90;;;;;;5068465;28;20021;-74
2022/01/13 04:23:32;;;;;;;108.20;35.58;;;6.80;99.90;;;;;;5053362;28;20073;-74
2022/01/13 04:25:58;;;;;;;121.20;36.08;;;6.70;99.90;;;;;;5054591;28;20147;-74
2022/01/13 04:28:27;;;;;;;101.63;34.47;;;6.80;99.90;;;;;;5054082;28;20051;-76
2022/01/13 04:31:00;;;;;;;108.00;34.45;;;6.80;99.90;;;;;;5053211;28;20107;-74
2022/01/13 04:33:30;;;;;;;108.43;33.42;;;6.80;99.90;;;;;;5053301;28;20036;-76
2022/01/13 04:35:56;;;;;;;109.30;34.05;;;6.80;99.90;;;;;;5052880;28;20029;-76
2022/01/13 04:38:22;;;;;;;106.03;34.67;;;6.80;99.90;;;;;;5052931;28;20025;-74
2022/01/13 04:40:54;;;;;;;108.82;35.42;;;6.80;99.90;;;;;;5052981;28;20032;-75
2022/01/13 04:43:20;;;;;;;110.80;35.17;;;6.80;99.90;;;;;;5101159;22;20142;-75
2022/01/13 04:45:47;;;;;;;101.38;33.08;;;6.80;99.90;;;;;;5074999;28;20517;-75
2022/01/13 04:48:14;;;;;;;107.47;35.13;;;6.80;99.90;;;;;;5093722;28;20496;-75
2022/01/13 04:50:40;;;;;;;101.13;34.90;;;6.80;99.90;;;;;;5093631;28;20043;-74
2022/01/13 04:53:05;;;;;;;108.05;34.45;;;6.90;99.90;;;;;;5093929;28;20032;-74
2022/01/13 04:55:34;;;;;;;108.35;35.33;;;6.80;99.90;;;;;;5093519;28;20384;-74
2022/01/13 04:58:01;;;;;;;108.60;35.80;;;6.80;99.90;;;;;;5093537;28;20016;-73
2022/01/13 05:00:27;;;;;;;100.88;33.63;;;6.80;99.90;;;;;;5075393;28;20029;-76
2022/01/13 05:02:54;;;;;;;110.82;33.55;;;6.80;99.90;;;;;;5093965;28;20084;-76
2022/01/13 05:05:20;;;;;;;111.63;34.97;;;6.70;99.90;;;;;;5099214;28;20035;-73
2022/01/13 05:07:46;;;;;;;99.82;33.85;;;6.80;99.90;;;;;;5108044;28;20024;-74
2022/01/13 05:10:12;;;;;;;96.63;33.60;;;6.80;99.90;;;;;;5111859;28;20028;-73
2022/01/13 05:12:46;;;;;;;101.15;34.35;;;6.70;99.90;;;;;;5109629;28;20551;-75
2022/01/13 05:15:17;;;;;;;112.75;35.60;;;6.80;99.90;;;;;;5085234;28;20035;-75
2022/01/13 05:21:18;;;;;;;105.70;34.95;;;6.80;99.90;;;;;;5111679;28;20020;-74
2022/01/13 05:23:15;;;;;;;109.28;36.60;;;6.80;99.90;;;;;;5095559;28;20031;-74
2022/01/13 05:25:42;;;;;;;111.97;36.42;;;6.80;99.90;;;;;;5103506;28;20020;-74
2022/01/13 05:28:07;;;;;;;116.25;37.90;;;6.80;99.90;;;;;;5103444;28;20079;-73
2022/01/13 05:30:33;;;;;;;111.07;35.83;;;6.80;99.90;;;;;;5101095;28;20067;-75
2022/01/13 05:32:59;;;;;;;96.00;35.05;;;6.90;99.90;;;;;;5101244;28;20024;-74
2022/01/13 05:35:25;;;;;;;109.40;35.70;;;6.90;99.90;;;;;;5099913;28;20034;-73
2022/01/13 05:37:51;;;;;;;115.60;36.63;;;6.90;99.90;;;;;;5080265;28;20298;-73
2022/01/13 05:40:17;;;;;;;113.35;37.40;;;6.90;99.90;;;;;;5095693;28;20024;-74
2022/01/13 05:42:43;;;;;;;114.90;37.97;;;6.90;99.90;;;;;;5092311;28;20039;-73
2022/01/13 05:45:19;;;;;;;108.47;34.58;;;6.90;99.90;;;;;;5092828;28;20419;-74
2022/01/13 05:47:48;;;;;;;111.53;36.75;;;7.00;99.90;;;;;;5093446;28;20020;-73
2022/01/13 05:50:16;;;;;;;105.60;36.80;;;7.00;99.90;;;;;;5096080;28;20023;-74
2022/01/13 05:52:41;;;;;;;124.60;36.03;;;7.00;99.90;;;;;;5094602;28;20354;-74
2022/01/13 05:55:08;;;;;;;102.90;34.85;;;6.90;99.90;;;;;;5092906;28;20039;-74
2022/01/13 05:57:34;;;;;;;114.20;36.88;;;7.00;99.90;;;;;;5093234;28;20099;-74
2022/01/13 06:00:00;;;;;;;107.65;34.38;;;7.00;99.90;;;;;;5075518;28;20052;-74
2022/01/13 06:02:25;;;;;;;110.00;34.20;;;7.00;99.90;;;;;;5094426;28;20044;-74
2022/01/13 06:04:51;;;;;;;106.10;36.60;;;7.10;99.90;;;;;;5098760;28;20031;-76
2022/01/13 06:07:17;;;;;;;105.43;36.58;;;7.10;99.90;;;;;;5097940;28;20028;-77
2022/01/13 06:09:43;;;;;;;107.90;36.03;;;7.20;99.90;;;;;;5098101;28;20024;-74
2022/01/13 06:12:09;;;;;;;109.90;36.95;;;7.20;99.90;;;;;;5094180;28;20024;-75
2022/01/13 06:14:35;;;;;;;103.00;35.38;;;7.20;99.90;;;;;;5093995;28;20035;-75
2022/01/13 06:17:01;;;;;;;103.88;35.53;;;7.20;99.90;;;;;;5093026;28;20024;-75
2022/01/13 06:19:28;;;;;;;115.50;36.88;;;7.20;99.90;;;;;;5093656;28;20028;-77
2022/01/13 06:21:53;;;;;;;99.25;36.00;;;7.30;99.90;;;;;;5077141;28;20020;-75
2022/01/13 06:24:19;;;;;;;120.28;45.22;;;7.30;99.90;;;;;;5093154;28;20151;-73
2022/01/13 06:26:45;;;;;;;104.82;35.83;;;7.30;99.90;;;;;;5092826;28;20028;-74
2022/01/13 06:29:10;;;;;;;108.15;35.95;;;7.30;99.90;;;;;;5093733;28;20127;-73
2022/01/13 06:31:36;;;;;;;107.30;37.92;;;7.30;99.90;;;;;;5074154;28;20384;-73
2022/01/13 06:34:01;;;;;;;103.63;37.30;;;7.30;99.90;;;;;;5092593;28;20071;-74
2022/01/13 06:36:28;;;;;;;97.13;35.97;;;7.40;99.90;;;;;;5092561;28;20036;-74
2022/01/13 06:38:54;;;;;;;101.03;35.90;;;7.30;99.90;;;;;;5092894;28;20020;-72
2022/01/13 06:41:19;;;;;;;88.93;33.92;;;7.30;99.90;;;;;;5076056;28;20077;-76
2022/01/13 06:43:45;;;;;;;100.63;37.08;;;7.30;99.90;;;;;;5099257;28;20032;-73
2022/01/13 06:46:12;;;;;;;95.70;35.60;;;7.40;99.90;;;;;;5096494;28;20027;-73
2022/01/13 06:48:38;;;;;;;94.47;35.38;;;7.30;99.90;;;;;;5096772;28;20035;-75
2022/01/13 06:51:03;;;;;;;96.95;35.38;;;7.30;99.90;;;;;;5099315;28;20032;-74
2022/01/13 06:53:29;;;;;;;88.68;34.13;;;7.40;99.90;;;;;;5096621;28;20028;-74
2022/01/13 06:55:55;;;;;;;93.75;34.80;;;7.40;99.90;;;;;;5098475;28;20028;-74
2022/01/13 06:58:20;;;;;;;87.60;33.47;;;7.40;99.90;;;;;;5099111;28;20028;-74
2022/01/13 07:00:46;;;;;;;95.65;34.40;;;7.40;99.90;;;;;;5098640;28;20464;-73
2022/01/13 07:03:11;;;;;;;95.25;34.63;;;7.40;99.90;;;;;;5100651;28;20521;-74
2022/01/13 07:05:37;;;;;;;95.00;34.72;;;7.40;99.90;;;;;;5102565;28;20035;-76
2022/01/13 07:08:03;;;;;;;94.07;34.90;;;7.40;99.90;;;;;;5101863;28;20020;-73
2022/01/13 07:10:29;;;;;;;94.10;36.50;;;7.30;99.90;;;;;;5080044;28;20035;-73
2022/01/13 07:12:55;;;;;;;96.50;34.90;;;7.30;99.90;;;;;;5098135;28;20028;-75
2022/01/13 07:15:21;;;;;;;88.05;32.67;;;7.30;99.90;;;;;;5094783;28;20032;-74
2022/01/13 07:17:46;;;;;;;92.57;35.25;;;7.40;99.90;;;;;;5096105;28;20024;-74
2022/01/13 07:20:12;;;;;;;91.07;35.50;;;7.40;99.90;;;;;;5095894;28;20046;-74
2022/01/13 07:22:39;;;;;;;92.18;34.33;;;7.40;99.90;;;;;;5095720;28;20057;-75
2022/01/13 07:25:08;;;;;;;85.13;35.00;;;7.40;99.90;;;;;;5096393;28;20111;-77
2022/01/13 07:27:34;;;;;;;88.95;34.80;;;7.40;99.90;;;;;;5095792;28;20630;-75
2022/01/13 07:29:59;;;;;;;87.68;35.33;;;7.40;99.90;;;;;;5095845;28;20024;-76
2022/01/13 07:32:25;;;;;;;82.45;34.42;;;7.50;99.90;;;;;;5095627;28;20028;-79
2022/01/13 07:34:51;;;;;;;85.13;33.40;;;7.50;99.90;;;;;;5076714;28;20024;-74
2022/01/13 07:37:16;;;;;;;89.78;34.20;;;7.50;99.90;;;;;;5094439;28;20047;-74
2022/01/13 07:39:42;;;;;;;98.22;34.17;;;7.50;99.90;;;;;;5095309;28;20020;-74
2022/01/13 07:42:08;;;;;;;82.53;33.55;;;7.50;99.90;;;;;;5094801;28;20024;-75
2022/01/13 07:44:34;;;;;;;94.13;35.10;;;7.40;99.90;;;;;;5094770;28;20024;-74
2022/01/13 07:47:00;;;;;;;83.35;32.75;;;7.40;99.90;;;;;;5076525;28;20400;-78
2022/01/13 07:49:27;;;;;;;90.38;33.85;;;7.50;99.90;;;;;;5096750;28;20020;-76
2022/01/13 07:51:53;;;;;;;91.30;32.80;;;7.50;99.90;;;;;;5096635;28;20542;-73
2022/01/13 07:54:18;;;;;;;85.07;33.25;;;7.40;99.90;;;;;;5093431;28;20028;-77
2022/01/13 07:56:44;;;;;;;84.50;32.30;;;7.40;99.90;;;;;;5094337;28;20028;-77
2022/01/13 07:59:10;;;;;;;81.88;32.28;;;7.40;99.90;;;;;;5081688;28;20016;-79
2022/01/13 08:01:35;;;;;;;94.07;34.22;;;7.50;99.90;;;;;;5098327;28;20035;-75
2022/01/13 08:04:01;;;;;;;88.32;33.58;;;7.40;99.90;;;;;;5079435;28;20028;-79
2022/01/13 08:06:26;;;;;;;86.75;33.78;;;7.50;99.90;;;;;;5097626;28;20028;-78
2022/01/13 08:08:52;;;;;;;79.43;33.10;;;7.50;99.90;;;;;;5078451;28;20028;-77
2022/01/13 08:11:18;;;;;;;79.57;32.75;;;7.50;99.90;;;;;;5076786;28;20058;-74
2022/01/13 08:13:44;;;;;;;86.85;34.55;;;7.60;99.90;;;;;;5077048;28;20115;-77
2022/01/13 08:16:10;;;;;;;90.38;34.00;;;7.60;99.90;;;;;;5095612;28;20477;-76
2022/01/13 08:21:23;;;;;;;94.68;36.85;;;7.50;99.90;;;;;;5096485;28;20034;-75
2022/01/13 08:23:50;;;;;;;85.03;34.72;;;7.50;99.90;;;;;;5094753;28;20102;-75
2022/01/13 08:26:18;;;;;;;79.97;33.22;;;7.50;99.90;;;;;;5095086;28;20042;-75
2022/01/13 08:28:44;;;;;;;89.55;36.80;;;7.50;99.90;;;;;;5096116;28;20024;-76
2022/01/13 08:31:10;;;;;;;89.45;36.15;;;7.50;99.90;;;;;;5095568;28;20077;-76
2022/01/13 08:33:35;;;;;;;88.72;34.88;;;7.50;99.90;;;;;;5098487;28;20024;-76
2022/01/13 08:36:02;;;;;;;77.13;32.90;;;7.40;99.90;;;;;;5097920;28;20073;-75
2022/01/13 08:38:28;;;;;;;81.20;31.98;;;7.30;99.90;;;;;;5098776;28;20020;-77
2022/01/13 08:40:58;;;;;;;71.97;29.75;;;7.40;99.90;;;;;;5089473;28;20079;-75
2022/01/13 08:43:26;;;;;;;78.45;31.20;;;7.40;99.90;;;;;;5073122;28;20025;-76
2022/01/13 08:45:52;;;;;;;72.45;29.92;;;7.30;99.90;;;;;;5071024;28;20035;-75
2022/01/13 08:48:21;;;;;;;75.18;30.00;;;7.30;99.90;;;;;;5089751;28;20025;-76
2022/01/13 08:50:47;;;;;;;81.45;31.90;;;7.30;99.90;;;;;;5065160;28;20532;-76
2022/01/13 08:53:17;;;;;;;96.05;35.92;;;7.30;99.90;;;;;;5080621;28;20024;-76
2022/01/13 08:55:44;;;;;;;76.45;30.40;;;7.30;99.90;;;;;;5058665;28;20021;-76
2022/01/13 08:58:09;;;;;;;76.57;30.35;;;7.40;99.90;;;;;;5073745;28;20024;-76
2022/01/13 09:00:37;;;;;;;84.28;33.00;;;7.40;99.90;;;;;;5057721;28;20016;-77
2022/01/13 09:03:07;;;;;;;80.50;32.05;;;7.30;99.90;;;;;;5079777;28;20023;-74
2022/01/13 09:05:34;;;;;;;77.43;30.58;;;7.20;99.90;;;;;;5058698;28;20366;-75
2022/01/13 09:08:00;;;;;;;85.20;30.55;;;7.20;99.90;;;;;;5075316;28;20028;-75
2022/01/13 09:10:26;;;;;;;74.38;29.95;;;7.20;99.90;;;;;;5055372;28;20067;-76
2022/01/13 09:12:51;;;;;;;80.28;30.73;;;7.20;99.90;;;;;;5073951;28;20033;-75
2022/01/13 09:15:32;;;;;;;79.38;32.13;;;7.20;99.90;;;;;;5073267;28;20032;-75
2022/01/13 09:18:06;;;;;;;90.65;32.88;;;7.10;99.90;;;;;;5073723;28;20028;-75
2022/01/13 09:20:31;;;;;;;88.80;32.60;;;7.10;99.90;;;;;;5057207;28;20027;-76
2022/01/13 09:22:57;;;;;;;91.88;31.88;;;7.00;99.90;;;;;;5072746;28;20021;-75
2022/01/13 09:25:23;;;;;;;85.85;31.00;;;6.90;99.90;;;;;;5054883;28;20028;-76
2022/01/13 09:27:49;;;;;;;86.03;31.13;;;7.00;99.90;;;;;;5073399;28;20028;-77
2022/01/13 09:30:15;;;;;;;90.28;31.48;;;7.00;99.90;;;;;;5073053;28;20052;-75
2022/01/13 09:32:40;;;;;;;87.93;32.17;;;7.10;99.90;;;;;;5073176;28;20319;-77
2022/01/13 09:35:07;;;;;;;87.38;31.65;;;7.10;99.90;;;;;;5072226;28;20030;-74
2022/01/13 09:37:34;;;;;;;88.63;31.92;;;7.10;99.90;;;;;;5074121;28;20032;-77
2022/01/13 09:40:00;;;;;;;85.57;31.52;;;7.10;99.90;;;;;;5072786;28;20031;-75
2022/01/13 09:42:27;;;;;;;95.57;34.03;;;7.10;99.90;;;;;;5074166;28;20025;-75
2022/01/13 09:44:55;;;;;;;100.30;37.92;;;7.10;99.90;;;;;;5079237;28;20562;-77
2022/01/13 09:47:21;;;;;;;93.45;34.47;;;7.10;99.90;;;;;;5082841;28;20021;-75
2022/01/13 09:49:47;;;;;;;84.53;32.08;;;7.10;99.90;;;;;;5061056;28;20032;-75
2022/01/13 09:52:13;;;;;;;89.78;31.52;;;7.10;99.90;;;;;;5061570;28;20032;-76
2022/01/13 09:54:39;;;;;;;84.65;31.10;;;7.10;99.90;;;;;;5071684;28;20374;-74
2022/01/13 09:57:05;;;;;;;96.35;31.83;;;7.10;99.90;;;;;;5073715;28;20033;-73
2022/01/13 09:59:30;;;;;;;86.43;32.10;;;7.10;99.90;;;;;;5059726;28;20052;-73
2022/01/13 10:01:56;;;;;;;82.70;31.13;;;7.10;99.90;;;;;;5072253;28;20112;-75
2022/01/13 10:04:21;;;;;;;88.60;31.85;;;7.10;99.90;;;;;;5075195;28;20037;-74
2022/01/13 10:06:48;;;;;;;86.93;32.50;;;7.00;99.90;;;;;;5078010;28;20024;-75
2022/01/13 10:09:15;;;;;;;88.20;31.90;;;7.10;99.90;;;;;;5071760;28;20132;-73
2022/01/13 10:11:54;;;;;;;86.47;33.15;;;7.10;99.90;;;;;;5055305;28;20459;-74
2022/01/13 10:17:15;;;;;;;84.05;31.02;;;7.10;99.90;;;;;;5074199;28;20039;-74
2022/01/13 10:19:46;;;;;;;84.63;30.00;;;7.20;99.90;;;;;;5075584;28;20023;-75
2022/01/13 10:22:21;;;;;;;80.88;30.05;;;7.30;99.90;;;;;;5074970;28;20028;-76
2022/01/13 10:24:48;;;;;;;87.10;31.48;;;7.30;99.90;;;;;;5057189;28;20025;-76
2022/01/13 10:27:16;;;;;;;78.90;29.73;;;7.30;99.90;;;;;;5074562;28;20051;-75
2022/01/13 10:29:47;;;;;;;83.18;31.02;;;7.30;99.90;;;;;;5075183;28;20500;-74
2022/01/13 10:32:22;;;;;;;84.97;30.90;;;7.40;99.90;;;;;;5081248;28;20029;-75
2022/01/13 10:34:58;;;;;;;89.68;31.25;;;7.30;99.90;;;;;;5072411;28;20021;-74
2022/01/13 10:37:38;;;;;;;82.35;30.20;;;7.30;99.90;;;;;;5075051;28;20044;-74
2022/01/13 10:40:11;;;;;;;94.80;32.80;;;7.30;99.90;;;;;;5057084;28;20074;-74
2022/01/13 10:43:06;;;;;;;95.53;32.40;;;7.30;99.90;;;;;;5039920;23;1055724;-75
2022/01/13 10:45:43;;;;;;;83.68;30.58;;;7.40;99.90;;;;;;5075004;28;20082;-74
2022/01/13 10:48:13;;;;;;;92.47;32.03;;;7.30;99.90;;;;;;5075704;28;20028;-78
2022/01/13 10:50:46;;;;;;;99.03;34.30;;;7.40;99.90;;;;;;5075924;28;20036;-74
2022/01/13 10:53:16;;;;;;;95.95;33.88;;;7.40;99.90;;;;;;5075498;28;20029;-75
2022/01/13 10:55:48;;;;;;;93.80;33.58;;;7.40;99.90;;;;;;5075412;28;20024;-75
2022/01/13 10:58:16;;;;;;;93.05;34.60;;;7.40;99.90;;;;;;5057757;28;20020;-75
2022/01/13 11:00:43;;;;;;;100.47;34.40;;;7.40;99.90;;;;;;5075977;28;20481;-75
2022/01/13 11:03:12;;;;;;;89.43;32.30;;;7.30;99.90;;;;;;5075163;28;20052;-73
2022/01/13 11:06:00;;;;;;;91.03;31.05;;;7.30;99.90;;;;;;5075031;28;20028;-74
2022/01/13 11:08:42;;;;;;;86.60;30.73;;;7.40;99.90;;;;;;5074383;28;20102;-75
2022/01/13 11:11:17;;;;;;;86.63;32.30;;;7.30;99.90;;;;;;5075478;28;20107;-75
2022/01/13 11:13:52;;;;;;;85.53;31.98;;;7.40;99.90;;;;;;5075073;28;20067;-75
2022/01/13 11:16:19;;;;;;;90.70;34.60;;;7.40;99.90;;;;;;5074982;28;20038;-73
2022/01/13 11:18:45;;;;;;;93.75;30.92;;;7.40;99.90;;;;;;5074962;28;20024;-73
2022/01/13 11:21:10;;;;;;;85.53;31.05;;;7.40;99.90;;;;;;5075424;28;20036;-73
2022/01/13 11:23:38;;;;;;;86.20;30.30;;;7.40;99.90;;;;;;5074801;28;20046;-72
2022/01/13 11:26:06;;;;;;;90.10;31.10;;;7.40;99.90;;;;;;5074468;28;20540;-73
2022/01/13 11:28:35;;;;;;;87.60;30.90;;;7.30;99.90;;;;;;5074321;28;20029;-73
2022/01/13 11:31:00;;;;;;;88.97;29.20;;;7.30;99.90;;;;;;5074349;28;20056;-73
2022/01/13 11:33:26;;;;;;;95.45;30.30;;;7.40;99.90;;;;;;5056235;28;20464;-73
2022/01/13 11:35:56;;;;;;;88.47;31.13;;;7.40;99.90;;;;;;5056012;28;20029;-73
2022/01/13 11:38:28;;;;;;;88.50;31.52;;;7.40;99.90;;;;;;5074904;28;20043;-73
2022/01/13 11:41:03;;;;;;;88.15;29.95;;;7.40;99.90;;;;;;5075236;28;20044;-73
2022/01/13 11:43:39;;;;;;;;;;;7.40;99.90;;;;;;5074581;28;20032;-73
2022/01/13 11:46:18;;;;;;;78.82;27.17;;;7.50;99.90;;;;;;5073948;28;20430;-73
2022/01/13 11:49:05;;;;;;;77.35;29.02;;;7.50;99.90;;;;;;5056157;28;20430;-73
2022/01/13 11:51:43;;;;;;;83.72;28.60;;;7.60;99.90;;;;;;5074665;28;20024;-73
2022/01/13 11:54:09;;;;;;;83.53;28.48;;;7.60;99.90;;;;;;5078683;28;20032;-73
2022/01/13 11:56:35;;;;;;;79.15;27.83;;;7.50;99.90;;;;;;5073871;28;20021;-72
2022/01/13 11:59:05;;;;;;;100.00;38.38;;;7.50;99.90;;;;;;5075248;28;20025;-73
2022/01/13 12:01:34;;;;;;;81.90;29.67;;;7.60;99.90;;;;;;5074595;28;20473;-73
2022/01/13 12:04:10;;;;;;;82.30;28.40;;;7.60;99.90;;;;;;5075533;28;20089;-73
2022/01/13 12:06:51;;;;;;;90.35;29.73;;;7.50;99.90;;;;;;5074453;28;20029;-73
2022/01/13 12:09:22;;;;;;;86.63;29.58;;;7.60;99.90;;;;;;5074620;28;20032;-72
2022/01/13 12:11:55;;;;;;;76.60;29.27;;;7.60;99.90;;;;;;5074309;28;20366;-72
2022/01/13 12:14:27;;;;;;;85.05;29.67;;;7.60;99.90;;;;;;5074481;28;20164;-72
2022/01/13 12:17:01;;;;;;;83.13;29.55;;;7.60;99.90;;;;;;5073268;28;20023;-72
2022/01/13 12:19:33;;;;;;;79.78;30.17;;;7.70;99.90;;;;;;5073833;28;20033;-72
2022/01/13 12:22:05;;;;;;;87.22;29.98;;;7.70;99.90;;;;;;5073870;28;20119;-73
2022/01/13 12:25:01;;;;;;;84.50;30.45;;;7.70;99.90;;;;;;5074243;28;20032;-73
2022/01/13 12:27:48;;;;;;;79.90;30.60;;;7.80;99.90;;;;;;5053934;28;20033;-74
2022/01/13 12:30:29;;;;;;;91.78;31.65;;;7.70;99.90;;;;;;5074025;28;20033;-73
2022/01/13 12:33:00;;;;;;;87.65;31.17;;;7.70;99.90;;;;;;5074220;28;20033;-73
2022/01/13 12:35:33;;;;;;;88.15;31.35;;;7.70;99.90;;;;;;5074816;28;20028;-73
2022/01/13 12:38:00;;;;;;;78.88;29.75;;;7.70;99.90;;;;;;5057256;28;20028;-73
2022/01/13 12:40:26;;;;;;;85.65;29.67;;;7.80;99.90;;;;;;5080858;28;20017;-73
2022/01/13 12:42:53;;;;;;;94.18;31.98;;;7.80;99.90;;;;;;5074381;28;20618;-73
2022/01/13 12:45:28;;;;;;;104.13;38.80;;;7.80;99.90;;;;;;5073686;28;20036;-73
2022/01/13 12:47:54;;;;;;;;;;;7.80;99.90;;;;;;5077058;28;20384;-72
2022/01/13 12:50:33;;;;;;;81.72;29.98;;;7.90;99.90;;;;;;5085156;28;19908;-74
2022/01/13 12:53:22;;;;;;;77.85;29.45;;;7.90;99.90;;;;;;5083418;28;20025;-74
2022/01/13 12:56:07;;;;;;;89.00;31.05;;;7.90;99.90;;;;;;5081614;28;20099;-76
2022/01/13 12:58:47;;;;;;;94.00;31.60;;;7.90;99.90;;;;;;5082273;28;20066;-73
2022/01/13 13:01:21;;;;;;;103.40;32.30;;;7.80;99.90;;;;;;5081739;28;20052;-73